Time;durP1;ratioP1;P1;durP2;ratioP2;P2;SDS_P1;SDS_P2;PMS_P1;PMS_P2;Temp;Humidity;BMP_temperature;BMP_pressure;BME280_temperature;BME280_humidity;BME280_pressure;Samples;Min_cycle;Max_cycle;Signal;HPM_P1;HPM_P2
2022/09/18 00:00:42;;;;;;;5.20;1.35;;;;;;;9.35;100.00;96854.78;5026984;28;20129;-69
2022/09/18 00:03:10;;;;;;;6.60;1.60;;;;;;;9.42;100.00;96853.34;5042359;28;20029;-68
2022/09/18 00:05:37;;;;;;;2.67;1.00;;;;;;;9.21;100.00;96853.66;5041732;28;20025;-67
2022/09/18 00:08:03;;;;;;;3.58;1.50;;;;;;;9.22;100.00;96857.94;5020388;28;20566;-68
2022/09/18 00:10:29;;;;;;;6.03;1.35;;;;;;;9.28;100.00;96853.81;5036671;28;20041;-66
2022/09/18 00:12:54;;;;;;;4.63;1.08;;;;;;;9.29;100.00;96848.00;5034264;28;20025;-69
2022/09/18 00:15:20;;;;;;;4.90;1.40;;;;;;;9.35;100.00;96856.72;5031385;28;20033;-65
2022/09/18 00:17:45;;;;;;;3.63;1.15;;;;;;;9.32;100.00;96846.50;5017460;28;20057;-68
2022/09/18 00:20:11;;;;;;;4.85;1.40;;;;;;;9.23;100.00;96843.94;5016292;28;20029;-69
2022/09/18 00:22:36;;;;;;;5.88;1.58;;;;;;;9.41;100.00;96843.56;5048120;28;20033;-66
2022/09/18 00:25:02;;;;;;;6.03;1.30;;;;;;;9.32;100.00;96841.81;5033544;28;20076;-69
2022/09/18 00:27:28;;;;;;;6.88;1.27;;;;;;;9.31;100.00;96847.63;5042708;28;20033;-67
2022/09/18 00:29:53;;;;;;;5.97;1.13;;;;;;;9.29;100.00;96839.00;5046243;28;20029;-67
2022/09/18 00:32:18;;;;;;;6.22;1.10;;;;;;;9.24;100.00;96839.25;5021441;28;20120;-68
2022/09/18 00:34:44;;;;;;;5.20;1.27;;;;;;;9.25;100.00;96846.31;5036833;28;20087;-68
2022/09/18 00:37:09;;;;;;;6.50;1.10;;;;;;;9.25;100.00;96841.63;5027319;28;20041;-66
2022/09/18 00:39:35;;;;;;;5.30;1.40;;;;;;;9.21;100.00;96848.97;5018155;28;20031;-68
2022/09/18 00:42:00;;;;;;;7.47;1.20;;;;;;;9.23;100.00;96845.88;5035798;28;20040;-68
2022/09/18 00:44:41;;;;;;;3.80;1.20;;;;;;;9.28;100.00;96843.66;5017683;28;20029;-68
2022/09/18 00:47:10;;;;;;;5.63;1.20;;;;;;;9.23;100.00;96843.94;5033587;28;20034;-68
2022/09/18 00:49:39;;;;;;;4.57;1.27;;;;;;;9.31;100.00;96836.69;5042827;28;20040;-67
2022/09/18 00:52:04;;;;;;;3.95;1.00;;;;;;;9.33;100.00;96843.41;5016121;28;20485;-67
2022/09/18 00:54:37;;;;;;;4.10;1.08;;;;;;;9.37;100.00;96835.28;5033208;28;20037;-67
2022/09/18 00:57:07;;;;;;;5.07;1.20;;;;;;;9.28;100.00;96831.94;5054031;28;20121;-68
2022/09/18 00:59:34;;;;;;;6.53;1.00;;;;;;;9.31;100.00;96834.78;5052995;28;20051;-69
2022/09/18 01:02:00;;;;;;;5.15;1.20;;;;;;;9.31;100.00;96836.69;5025725;28;20120;-67
2022/09/18 01:04:27;;;;;;;4.72;1.25;;;;;;;9.32;100.00;96839.06;5012463;28;20057;-67
2022/09/18 01:06:56;;;;;;;8.43;1.30;;;;;;;9.42;100.00;96835.00;5032324;28;20037;-69
2022/09/18 01:09:47;;;;;;;3.37;1.10;;;;;;;9.44;100.00;96832.72;5032657;28;20039;-68
2022/09/18 01:12:33;;;;;;;5.60;1.40;;;;;;;9.48;100.00;96833.59;5012551;28;20253;-69
2022/09/18 01:15:20;;;;;;;3.42;1.02;;;;;;;9.56;100.00;96826.31;5013485;28;20105;-68
2022/09/18 01:17:57;;;;;;;4.55;1.20;;;;;;;9.37;100.00;96838.03;5035216;28;20120;-65
2022/09/18 01:20:57;;;;;;;5.90;1.10;;;;;;;9.36;100.00;96839.97;5019051;28;20104;-68
2022/09/18 01:23:28;;;;;;;;;;;;;;;9.36;100.00;96841.88;5034710;28;20025;-69
2022/09/18 01:26:09;;;;;;;6.88;1.20;;;;;;;9.50;100.00;96842.22;5033384;28;19908;-68
2022/09/18 01:28:44;;;;;;;6.47;1.30;;;;;;;9.35;100.00;96846.56;5033675;28;20096;-68
2022/09/18 01:31:21;;;;;;;4.15;1.25;;;;;;;9.36;100.00;96839.97;5030131;28;20036;-68
2022/09/18 01:33:58;;;;;;;4.97;1.15;;;;;;;9.29;100.00;96839.81;5039349;28;20033;-68
2022/09/18 01:36:28;;;;;;;2.90;1.45;;;;;;;9.33;100.00;96837.16;5043173;28;20033;-69
2022/09/18 01:39:00;;;;;;;5.22;1.55;;;;;;;9.26;100.00;96832.31;5033065;28;20033;-69
2022/09/18 01:41:28;;;;;;;4.13;0.95;;;;;;;9.23;100.00;96824.03;5032994;28;20053;-69
2022/09/18 01:44:05;;;;;;;4.18;1.10;;;;;;;9.27;100.00;96827.63;5014074;28;20494;-69
2022/09/18 01:46:32;;;;;;;7.35;1.10;;;;;;;9.29;100.00;96831.59;5004502;28;20040;-68
2022/09/18 01:49:08;;;;;;;2.30;1.13;;;;;;;9.24;100.00;96831.06;5042710;28;20037;-69
2022/09/18 01:51:39;;;;;;;4.70;1.20;;;;;;;9.23;100.00;96832.22;5035585;28;20375;-69
2022/09/18 01:54:14;;;;;;;3.45;1.20;;;;;;;9.40;100.00;96831.03;5034156;28;20029;-68
2022/09/18 01:56:47;;;;;;;6.40;1.70;;;;;;;9.40;100.00;96829.13;5033447;28;20100;-68
2022/09/18 01:59:20;;;;;;;4.53;1.30;;;;;;;9.40;100.00;96820.91;5020743;28;20068;-69
2022/09/18 02:01:48;;;;;;;6.20;1.38;;;;;;;9.23;100.00;96826.75;5014111;28;20034;-67
2022/09/18 02:04:21;;;;;;;2.90;1.13;;;;;;;9.16;100.00;96827.38;5032710;28;20402;-68
2022/09/18 02:06:53;;;;;;;7.13;1.33;;;;;;;9.33;100.00;96829.72;5032400;28;20057;-68
2022/09/18 02:09:19;;;;;;;2.75;1.08;;;;;;;9.24;100.00;96831.06;5032836;28;20410;-67
2022/09/18 02:11:49;;;;;;;4.72;1.38;;;;;;;9.22;100.00;96830.63;5031333;28;20026;-68
2022/09/18 02:14:20;;;;;;;4.75;1.10;;;;;;;9.29;100.00;96831.59;5026967;28;20030;-68
2022/09/18 02:16:50;;;;;;;5.45;1.25;;;;;;;9.21;100.00;96834.50;5032376;28;20076;-68
2022/09/18 02:19:35;;;;;;;3.58;1.45;;;;;;;9.29;100.00;96822.59;5031026;28;20112;-69
2022/09/18 02:22:06;;;;;;;3.75;2.00;;;;;;;9.32;100.00;96821.88;5030625;28;20490;-68
2022/09/18 02:24:34;;;;;;;9.30;1.60;;;;;;;9.34;100.00;96827.78;5033750;28;20098;-68
2022/09/18 02:27:03;;;;;;;3.17;1.05;;;;;;;9.33;100.00;96824.28;5031575;28;20037;-67
2022/09/18 02:29:30;;;;;;;2.80;1.17;;;;;;;9.24;100.00;96829.13;5013716;28;20120;-68
2022/09/18 02:31:58;;;;;;;10.77;1.52;;;;;;;9.27;100.00;96819.41;5013939;28;20024;-68
2022/09/18 02:34:24;;;;;;;6.65;1.00;;;;;;;9.17;100.00;96821.56;5031146;28;20029;-69
2022/09/18 02:37:18;;;;;;;5.53;1.60;;;;;;;9.17;100.00;96824.28;5033810;28;20036;-69
2022/09/18 02:39:53;;;;;;;5.10;1.10;;;;;;;9.17;100.00;96821.56;5035135;28;20089;-68
2022/09/18 02:42:40;;;;;;;6.10;1.20;;;;;;;9.10;100.00;96820.59;5062771;28;20086;-68
2022/09/18 02:45:30;;;;;;;5.50;1.02;;;;;;;9.18;100.00;96814.13;5037514;28;20033;-66
2022/09/18 02:48:17;;;;;;;6.95;1.35;;;;;;;9.16;100.00;96813.72;5012296;28;20045;-68
2022/09/18 02:51:10;;;;;;;6.28;1.08;;;;;;;9.21;100.00;96809.91;5012212;28;20030;-68
2022/09/18 02:53:57;;;;;;;3.30;1.20;;;;;;;9.03;100.00;96812.22;5012378;28;20034;-67
2022/09/18 02:56:49;;;;;;;5.78;1.30;;;;;;;9.09;100.00;96813.53;5012016;28;20483;-68
2022/09/18 02:59:25;;;;;;;4.30;1.23;;;;;;;9.09;100.00;96816.25;5030900;28;20426;-68
2022/09/18 03:01:52;;;;;;;4.88;1.30;;;;;;;9.16;100.00;96809.06;5031699;28;20087;-68
2022/09/18 03:04:22;;;;;;;6.13;1.35;;;;;;;9.16;100.00;96811.78;5031620;28;20025;-68
2022/09/18 03:06:48;;;;;;;;;;;;;;;9.12;100.00;96810.09;5031666;28;20025;-68
2022/09/18 03:09:14;;;;;;;4.97;1.23;;;;;;;9.07;100.00;96808.41;5030446;28;20259;-68
2022/09/18 03:11:40;;;;;;;6.20;1.13;;;;;;;9.06;100.00;96808.81;5029768;28;20026;-67
2022/09/18 03:14:06;;;;;;;5.07;1.35;;;;;;;9.10;100.00;96810.44;5039415;28;20431;-68
2022/09/18 03:16:31;;;;;;;5.75;1.10;;;;;;;9.14;100.00;96816.00;5032983;28;20029;-67
2022/09/18 03:18:58;;;;;;;5.68;1.20;;;;;;;9.15;100.00;96807.47;5033936;28;20402;-65
2022/09/18 03:21:24;;;;;;;4.40;1.17;;;;;;;9.15;100.00;96809.41;5051447;28;20080;-66
2022/09/18 03:23:49;;;;;;;4.53;1.40;;;;;;;9.08;100.00;96815.47;5024754;28;20036;-67
2022/09/18 03:26:15;;;;;;;4.93;1.00;;;;;;;9.15;100.00;96814.88;5016116;28;20491;-67
2022/09/18 03:28:41;;;;;;;4.72;1.10;;;;;;;9.09;100.00;96808.88;5017991;28;20025;-66
2022/09/18 03:31:06;;;;;;;6.00;1.38;;;;;;;9.01;100.00;96806.34;5035664;28;20033;-66
2022/09/18 03:33:32;;;;;;;3.42;1.30;;;;;;;9.00;100.00;96810.97;5035685;28;20038;-65
2022/09/18 03:35:57;;;;;;;9.45;1.40;;;;;;;9.01;100.00;96818.03;5033620;28;20029;-66
2022/09/18 03:38:23;;;;;;;2.13;1.05;;;;;;;9.05;100.00;96812.66;5035218;28;20444;-66
2022/09/18 03:40:48;;;;;;;4.28;1.05;;;;;;;9.15;100.00;96807.47;5033573;28;20453;-66
2022/09/18 03:43:14;;;;;;;6.60;1.30;;;;;;;9.15;100.00;96820.34;5034037;28;20029;-67
2022/09/18 03:45:42;;;;;;;10.00;1.67;;;;;;;9.14;100.00;96816.00;5034054;28;20029;-67
2022/09/18 03:48:07;;;;;;;6.22;1.30;;;;;;;9.04;100.00;96819.25;5036362;28;20065;-67
2022/09/18 03:50:33;;;;;;;2.03;1.13;;;;;;;9.04;100.00;96806.41;5056562;28;20442;-65
2022/09/18 03:52:58;;;;;;;3.53;1.20;;;;;;;8.93;100.00;96819.81;5032145;28;20044;-67
2022/09/18 03:55:23;;;;;;;5.53;1.60;;;;;;;9.06;100.00;96817.78;5033767;28;20033;-66
2022/09/18 03:57:49;;;;;;;3.63;1.30;;;;;;;9.10;100.00;96805.00;5044515;28;20025;-67
2022/09/18 04:00:15;;;;;;;5.65;1.10;;;;;;;8.98;100.00;96818.75;5035108;28;20525;-66
2022/09/18 04:02:42;;;;;;;7.43;1.45;;;;;;;9.06;100.00;96830.66;5034286;28;20029;-67
2022/09/18 04:05:08;;;;;;;2.55;0.93;;;;;;;9.06;100.00;96830.66;5042875;28;20048;-67
2022/09/18 04:07:33;;;;;;;3.22;1.10;;;;;;;9.10;100.00;96832.31;5034562;28;20569;-66
2022/09/18 04:09:58;;;;;;;6.28;1.23;;;;;;;9.04;100.00;96832.94;5035074;28;20098;-67
2022/09/18 04:12:24;;;;;;;3.92;1.00;;;;;;;8.97;100.00;96822.63;5043142;28;20389;-67
2022/09/18 04:14:50;;;;;;;7.40;1.42;;;;;;;8.95;100.00;96819.47;5054270;28;20072;-67
2022/09/18 04:17:16;;;;;;;4.93;1.50;;;;;;;9.03;100.00;96820.44;5037142;28;20475;-66
2022/09/18 04:19:42;;;;;;;5.07;1.05;;;;;;;9.05;100.00;96829.06;5052854;28;20089;-66
2022/09/18 04:22:07;;;;;;;4.13;1.20;;;;;;;9.12;100.00;96821.81;5054173;28;20033;-66
2022/09/18 04:24:34;;;;;;;7.20;1.30;;;;;;;9.12;100.00;96824.56;5036246;28;20539;-66
2022/09/18 04:26:59;;;;;;;9.43;1.25;;;;;;;9.11;100.00;96827.63;5053805;28;20474;-67
2022/09/18 04:29:25;;;;;;;6.57;1.23;;;;;;;9.12;100.00;96816.34;5054433;28;20112;-67
2022/09/18 04:31:50;;;;;;;3.83;1.10;;;;;;;9.04;100.00;96816.53;5036980;28;20044;-67
2022/09/18 04:34:16;;;;;;;3.85;1.02;;;;;;;9.08;100.00;96814.69;5015285;28;20033;-66
2022/09/18 04:36:41;;;;;;;6.57;1.00;;;;;;;9.01;100.00;96822.72;5033771;28;20032;-66
2022/09/18 04:39:07;;;;;;;6.63;1.20;;;;;;;9.02;100.00;96827.84;5033048;28;20127;-66
2022/09/18 04:41:32;;;;;;;4.00;1.30;;;;;;;8.94;100.00;96826.84;5033697;28;20033;-66
2022/09/18 04:43:57;;;;;;;7.05;0.95;;;;;;;8.99;100.00;96834.00;5023348;28;20037;-67
2022/09/18 04:46:23;;;;;;;3.85;1.30;;;;;;;8.95;100.00;96825.72;5039078;28;20025;-66
2022/09/18 04:48:49;;;;;;;4.85;1.38;;;;;;;9.02;100.00;96833.31;5042748;28;20040;-66
2022/09/18 04:51:14;;;;;;;4.72;0.80;;;;;;;8.98;100.00;96821.47;4999669;28;20056;-67
2022/09/18 04:53:40;;;;;;;3.97;1.00;;;;;;;8.95;100.00;96831.19;5039986;28;20037;-67
2022/09/18 04:56:06;;;;;;;5.47;1.33;;;;;;;8.99;100.00;96836.72;5049493;28;20482;-68
2022/09/18 04:58:32;;;;;;;7.90;1.50;;;;;;;9.02;100.00;96832.50;5051506;28;20024;-66
2022/09/18 05:00:57;;;;;;;6.32;1.70;;;;;;;8.99;100.00;96834.78;5045114;28;20617;-68
2022/09/18 05:03:23;;;;;;;5.78;1.20;;;;;;;8.96;100.00;96842.88;5051082;28;20068;-66
2022/09/18 05:05:49;;;;;;;10.65;1.48;;;;;;;8.95;100.00;96844.84;5057816;28;20036;-68
2022/09/18 05:08:15;;;;;;;3.25;1.00;;;;;;;8.94;100.00;96850.66;5053386;28;20100;-67
2022/09/18 05:10:41;;;;;;;7.13;1.23;;;;;;;8.87;100.00;96855.94;5018389;28;20503;-67
2022/09/18 05:13:07;;;;;;;6.53;1.60;;;;;;;8.98;100.00;96854.25;5037287;28;20029;-68
2022/09/18 05:15:33;;;;;;;3.58;0.93;;;;;;;9.01;100.00;96860.97;5036869;28;20104;-67
2022/09/18 05:18:00;;;;;;;6.55;1.25;;;;;;;8.92;100.00;96874.78;5042886;28;20090;-67
2022/09/18 05:20:26;;;;;;;6.65;1.10;;;;;;;8.93;100.00;96865.44;5057311;28;20064;-67
2022/09/18 05:22:52;;;;;;;3.75;1.00;;;;;;;9.01;100.00;96878.16;5055918;28;20032;-68
2022/09/18 05:25:19;;;;;;;9.88;1.38;;;;;;;8.97;100.00;96874.53;5054551;28;20100;-67
2022/09/18 05:27:55;;;;;;;8.05;2.53;;;;;;;9.09;100.00;96869.00;5054041;28;20376;-67
2022/09/18 05:30:22;;;;;;;6.03;1.20;;;;;;;9.00;100.00;96871.09;5045221;28;20053;-67
2022/09/18 05:32:55;;;;;;;5.72;0.90;;;;;;;8.91;100.00;96874.00;5042331;28;20033;-68
2022/09/18 05:35:21;;;;;;;5.03;1.33;;;;;;;8.93;100.00;96873.63;5015206;28;20071;-65
2022/09/18 05:37:54;;;;;;;2.47;1.02;;;;;;;9.00;100.00;96871.09;5033673;28;20072;-67
2022/09/18 05:40:22;;;;;;;8.57;1.20;;;;;;;8.91;100.00;96878.66;5033323;28;20165;-68
2022/09/18 05:42:48;;;;;;;2.85;0.95;;;;;;;8.97;100.00;96880.78;5025045;28;20104;-68
2022/09/18 05:45:15;;;;;;;5.88;1.27;;;;;;;9.00;100.00;96884.75;5032212;28;20030;-67
2022/09/18 05:47:41;;;;;;;4.43;1.00;;;;;;;9.04;100.00;96888.38;5040886;28;20502;-68
2022/09/18 05:50:08;;;;;;;6.38;1.20;;;;;;;8.94;100.00;96889.69;5015164;28;20021;-68
2022/09/18 05:52:35;;;;;;;7.40;1.27;;;;;;;8.98;100.00;96890.59;5032256;28;20074;-68
2022/09/18 05:55:00;;;;;;;8.02;1.35;;;;;;;8.98;100.00;96904.25;5022883;28;20033;-67
2022/09/18 05:57:26;;;;;;;6.32;1.30;;;;;;;9.02;100.00;96898.06;5049320;28;20543;-67
2022/09/18 05:59:51;;;;;;;4.13;1.15;;;;;;;9.03;100.00;96897.72;5052979;28;20147;-67
2022/09/18 06:02:17;;;;;;;6.28;1.30;;;;;;;8.93;100.00;96896.31;5052737;28;20057;-66
2022/09/18 06:04:42;;;;;;;6.68;1.88;;;;;;;8.91;100.00;96905.97;5052824;28;20124;-67
2022/09/18 06:07:07;;;;;;;5.43;1.20;;;;;;;9.04;100.00;96896.56;5043460;28;20483;-67
2022/09/18 06:09:33;;;;;;;6.50;1.15;;;;;;;9.12;100.00;96889.34;5042082;28;20025;-66
2022/09/18 06:11:58;;;;;;;9.57;1.20;;;;;;;9.07;100.00;96884.13;5052592;28;20036;-67
2022/09/18 06:14:24;;;;;;;5.32;1.65;;;;;;;9.09;100.00;96877.19;5034703;28;20046;-67
2022/09/18 06:16:49;;;;;;;4.93;1.23;;;;;;;9.31;100.00;96866.75;5045708;28;20105;-65
2022/09/18 06:19:15;;;;;;;8.02;2.13;;;;;;;9.46;100.00;96865.97;5033330;28;20068;-67
2022/09/18 06:21:41;;;;;;;5.22;1.52;;;;;;;9.63;100.00;96862.03;5014566;28;20815;-68
2022/09/18 06:24:07;;;;;;;7.32;1.42;;;;;;;9.72;100.00;96867.31;5040640;28;20036;-67
2022/09/18 06:26:33;;;;;;;3.88;1.35;;;;;;;9.62;100.00;96862.41;5032519;28;20025;-68
2022/09/18 06:28:59;;;;;;;5.90;1.15;;;;;;;9.48;100.00;96865.59;5032873;28;20039;-68
2022/09/18 06:31:24;;;;;;;8.82;1.33;;;;;;;9.56;100.00;96864.59;5032354;28;20040;-68
2022/09/18 06:33:50;;;;;;;6.75;1.45;;;;;;;9.61;100.00;96869.81;5032198;28;20037;-68
2022/09/18 06:36:15;;;;;;;6.25;2.03;;;;;;;9.61;100.00;96869.81;5037353;28;20637;-68
2022/09/18 06:38:41;;;;;;;5.57;1.25;;;;;;;9.55;100.00;96880.22;5043499;28;20078;-68
2022/09/18 06:41:07;;;;;;;10.50;1.30;;;;;;;9.50;100.00;96879.72;5052902;28;20033;-67
2022/09/18 06:43:33;;;;;;;9.88;1.52;;;;;;;9.61;100.00;96880.75;5053094;28;20033;-67
2022/09/18 06:45:59;;;;;;;3.10;0.93;;;;;;;9.67;100.00;96876.59;5052742;28;20057;-67
2022/09/18 06:48:25;;;;;;;3.03;1.10;;;;;;;9.72;100.00;96878.25;5052406;28;20060;-67
2022/09/18 06:50:52;;;;;;;4.18;1.23;;;;;;;9.79;100.00;96877.63;5035820;28;20441;-67
2022/09/18 06:53:18;;;;;;;5.00;1.58;;;;;;;9.66;100.00;96883.22;5027459;28;20106;-68
2022/09/18 06:55:44;;;;;;;8.38;1.98;;;;;;;9.69;100.00;96877.03;5053546;28;20037;-68
2022/09/18 06:58:09;;;;;;;9.23;2.55;;;;;;;9.82;100.00;96876.91;5042831;28;20033;-67
2022/09/18 07:00:35;;;;;;;4.85;1.38;;;;;;;9.77;100.00;96886.97;5042785;28;20029;-67
2022/09/18 07:03:02;;;;;;;6.05;1.30;;;;;;;9.91;100.00;96883.75;5053702;28;20031;-67
2022/09/18 07:05:30;;;;;;;3.83;1.58;;;;;;;10.17;100.00;96893.28;5050537;28;20036;-67
2022/09/18 07:07:56;;;;;;;7.85;1.52;;;;;;;10.11;100.00;96894.75;5048537;28;20029;-67
2022/09/18 07:10:22;;;;;;;3.42;1.23;;;;;;;10.25;100.00;96903.25;5030599;28;20029;-66
2022/09/18 07:12:48;;;;;;;5.07;1.83;;;;;;;10.25;100.00;96903.25;5043778;28;20040;-67
2022/09/18 07:15:15;;;;;;;4.45;1.00;;;;;;;10.41;100.00;96908.69;5032625;28;20546;-67
2022/09/18 07:17:41;;;;;;;6.93;0.90;;;;;;;10.65;100.00;96912.28;5052051;28;20029;-67
2022/09/18 07:20:07;;;;;;;6.68;1.50;;;;;;;10.78;100.00;96902.75;5043424;28;20040;-68
2022/09/18 07:22:33;;;;;;;6.20;1.20;;;;;;;10.58;100.00;96895.72;5041325;28;20048;-68
2022/09/18 07:24:58;;;;;;;3.15;0.88;;;;;;;10.56;100.00;96903.50;5051866;28;20485;-68
2022/09/18 07:27:23;;;;;;;7.53;1.50;;;;;;;10.47;100.00;96903.72;5037694;28;20040;-67
2022/09/18 07:29:49;;;;;;;7.45;1.17;;;;;;;10.56;100.00;96909.75;5013964;28;20033;-66
2022/09/18 07:32:15;;;;;;;7.18;1.50;;;;;;;10.54;100.00;96905.81;5032025;28;20383;-68
2022/09/18 07:34:40;;;;;;;4.70;1.27;;;;;;;10.53;100.00;96902.25;5030551;28;20120;-66
2022/09/18 07:37:05;;;;;;;5.32;1.58;;;;;;;10.64;100.00;96908.75;5039387;28;20025;-66
2022/09/18 07:39:31;;;;;;;3.80;1.10;;;;;;;10.98;100.00;96905.44;5031886;28;20070;-67
2022/09/18 07:41:56;;;;;;;6.32;2.05;;;;;;;11.31;100.00;96909.53;5029693;28;20471;-65
2022/09/18 07:44:21;;;;;;;4.47;1.70;;;;;;;11.40;100.00;96907.38;5029359;28;20029;-66
2022/09/18 07:46:47;;;;;;;4.70;1.23;;;;;;;11.32;100.00;96913.88;5060160;28;20037;-65
2022/09/18 07:49:12;;;;;;;3.50;1.00;;;;;;;11.41;100.00;96917.94;5067980;28;20051;-65
2022/09/18 07:51:38;;;;;;;4.22;1.35;;;;;;;11.57;100.00;96917.81;5051637;28;20041;-67
2022/09/18 07:54:03;;;;;;;7.30;1.10;;;;;;;11.24;100.00;96921.97;5050039;28;20502;-66
2022/09/18 07:56:28;;;;;;;8.40;1.30;;;;;;;11.27;100.00;96924.00;5039060;28;20033;-65
2022/09/18 07:58:54;;;;;;;5.18;1.15;;;;;;;11.78;100.00;96916.56;5039232;28;20034;-67
2022/09/18 08:01:19;;;;;;;3.65;1.60;;;;;;;11.57;100.00;96911.53;5036681;28;20041;-68
2022/09/18 08:03:45;;;;;;;4.78;1.10;;;;;;;11.37;100.00;96906.13;5040226;28;20512;-66
2022/09/18 08:06:11;;;;;;;5.10;1.17;;;;;;;11.14;100.00;96914.34;5016688;28;20032;-68
2022/09/18 08:08:36;;;;;;;8.32;1.50;;;;;;;11.48;100.00;96923.53;5035241;28;20080;-68
2022/09/18 08:11:02;;;;;;;11.65;4.28;;;;;;;11.59;100.00;96926.47;5039394;28;20041;-67
2022/09/18 08:13:27;;;;;;;7.53;2.83;;;;;;;11.81;100.00;96924.88;5035757;28;20033;-66
2022/09/18 08:15:53;;;;;;;8.35;1.70;;;;;;;11.61;100.00;96926.09;5035073;28;20033;-67
2022/09/18 08:18:20;;;;;;;5.85;1.63;;;;;;;11.75;100.00;96923.56;5035933;28;20724;-67
2022/09/18 08:20:46;;;;;;;9.07;1.00;;;;;;;11.59;100.00;96931.94;5038252;28;20087;-66
2022/09/18 08:23:11;;;;;;;4.13;0.90;;;;;;;11.84;100.00;96929.59;5036429;28;20479;-66
2022/09/18 08:25:37;;;;;;;6.85;1.30;;;;;;;11.61;100.00;96926.91;5000768;28;20026;-66
2022/09/18 08:28:04;;;;;;;4.80;1.40;;;;;;;11.88;100.00;96923.38;5041353;28;20033;-66
2022/09/18 08:30:30;;;;;;;8.23;1.33;;;;;;;11.89;100.00;96920.25;5034626;28;20673;-67
2022/09/18 08:33:00;;;;;;;2.95;1.00;;;;;;;12.06;100.00;96929.94;5034567;28;20478;-65
2022/09/18 08:35:27;;;;;;;5.70;1.13;;;;;;;12.38;100.00;96921.34;5034514;28;20047;-65
2022/09/18 08:37:52;;;;;;;4.47;1.65;;;;;;;12.04;100.00;96921.28;5035001;28;20105;-65
2022/09/18 08:40:21;;;;;;;3.30;1.40;;;;;;;12.34;100.00;96926.78;5038402;28;20112;-66
2022/09/18 08:43:22;;;;;;;5.13;1.67;;;;;;;12.18;100.00;96929.72;5046163;28;20033;-66
2022/09/18 08:45:54;;;;;;;7.63;1.67;;;;;;;12.41;100.00;96918.66;4972635;28;20038;-67
2022/09/18 08:48:26;;;;;;;5.18;1.40;;;;;;;13.16;97.37;96926.13;5041052;28;20509;-66
2022/09/18 08:51:00;;;;;;;7.50;1.60;;;;;;;13.70;94.26;96910.13;5054492;28;20029;-65
2022/09/18 08:53:38;;;;;;;3.15;0.90;;;;;;;13.86;94.07;96915.34;5051079;28;20067;-66
2022/09/18 08:56:09;;;;;;;6.05;1.30;;;;;;;13.20;93.39;96907.72;5030589;28;20112;-66
2022/09/18 08:58:56;;;;;;;10.05;1.92;;;;;;;13.28;92.29;96914.09;5042329;28;20029;-66
2022/09/18 09:01:31;;;;;;;5.63;1.60;;;;;;;13.93;90.11;96905.16;5034448;28;20040;-67
2022/09/18 09:04:09;;;;;;;9.00;2.80;;;;;;;14.05;89.36;96914.31;5034298;28;20036;-67
2022/09/18 09:06:53;;;;;;;6.22;1.42;;;;;;;14.02;87.88;96915.06;5033688;28;20080;-67
2022/09/18 09:09:54;;;;;;;4.93;1.50;;;;;;;13.77;89.73;96915.69;5053645;28;20033;-68
2022/09/18 09:12:39;;;;;;;7.18;1.40;;;;;;;14.37;87.29;96908.16;5030204;28;20040;-68
2022/09/18 09:15:13;;;;;;;5.25;1.10;;;;;;;15.47;83.59;96904.16;5035691;28;20036;-67
2022/09/18 09:17:47;;;;;;;5.75;1.20;;;;;;;16.60;76.01;96911.84;5053611;28;20033;-67
2022/09/18 09:20:28;;;;;;;12.07;4.43;;;;;;;16.16;74.66;96900.16;5026552;28;20021;-65
2022/09/18 09:23:14;;;;;;;9.20;2.63;;;;;;;15.88;75.64;96905.72;5035576;28;20035;-68
2022/09/18 09:26:04;;;;;;;9.35;1.50;;;;;;;15.57;75.77;96906.13;5055850;28;20387;-68
2022/09/18 09:28:32;;;;;;;6.47;1.20;;;;;;;16.04;74.27;96909.66;5053794;28;20136;-68
2022/09/18 09:31:03;;;;;;;4.45;0.90;;;;;;;16.61;70.06;96896.84;5044143;28;20465;-68
2022/09/18 09:33:36;;;;;;;2.13;0.68;;;;;;;17.64;64.23;96891.09;5041426;28;20029;-66
2022/09/18 09:36:12;;;;;;;4.03;0.85;;;;;;;18.31;61.62;96886.09;5032860;28;20078;-68
2022/09/18 09:38:40;;;;;;;5.72;1.33;;;;;;;18.78;58.54;96894.66;5032014;28;20030;-68
2022/09/18 09:41:14;;;;;;;5.30;0.95;;;;;;;18.87;56.13;96891.38;5031923;28;20036;-68
2022/09/18 09:43:46;;;;;;;3.65;0.60;;;;;;;18.11;54.19;96885.91;5033123;28;20037;-66
2022/09/18 09:46:40;;;;;;;3.28;1.13;;;;;;;17.23;57.86;96889.81;5034358;28;20029;-66
2022/09/18 09:49:27;;;;;;;2.28;0.68;;;;;;;18.36;56.41;96895.97;5019508;28;20428;-69
2022/09/18 09:52:18;;;;;;;1.90;0.60;;;;;;;17.46;55.39;96886.47;5011582;28;20507;-66
2022/09/18 09:54:43;;;;;;;2.00;0.50;;;;;;;17.52;56.50;96895.94;5012651;28;20038;-68
2022/09/18 09:57:24;;;;;;;2.30;0.63;;;;;;;17.83;55.59;96895.28;5012704;28;20052;-68
2022/09/18 10:00:04;;;;;;;4.75;1.48;;;;;;;18.73;53.66;96892.34;5014250;28;20084;-68
2022/09/18 10:02:48;;;;;;;3.78;0.60;;;;;;;18.50;53.98;96890.25;5019679;28;20132;-68
2022/09/18 10:05:35;;;;;;;2.80;0.63;;;;;;;17.29;57.78;96879.88;5017225;28;20045;-68
2022/09/18 10:08:11;;;;;;;2.28;0.50;;;;;;;17.84;53.38;96889.31;5025707;28;20524;-67
2022/09/18 10:10:48;;;;;;;5.65;0.88;;;;;;;17.43;53.82;96875.44;5024695;28;20048;-67
2022/09/18 10:13:24;;;;;;;2.03;0.60;;;;;;;16.87;55.53;96886.47;4999877;28;20048;-67
2022/09/18 10:15:58;;;;;;;1.95;0.47;;;;;;;17.58;55.03;96880.44;5024915;28;20045;-68
2022/09/18 10:18:29;;;;;;;1.70;0.45;;;;;;;17.53;53.37;96891.19;5021702;28;20526;-67
2022/09/18 10:21:05;;;;;;;1.55;0.40;;;;;;;17.30;54.78;96894.50;5005356;28;20087;-67
2022/09/18 10:23:37;;;;;;;1.67;0.50;;;;;;;17.54;55.23;96887.22;5021900;28;20048;-67
2022/09/18 10:26:03;;;;;;;4.00;0.80;;;;;;;18.54;52.97;96879.88;5018803;28;20037;-66
2022/09/18 10:28:29;;;;;;;1.38;0.60;;;;;;;19.45;48.01;96878.25;4999831;28;20837;-70
2022/09/18 10:31:04;;;;;;;2.38;0.88;;;;;;;18.42;49.63;96867.38;5034738;28;20044;-68
2022/09/18 10:33:34;;;;;;;4.55;1.38;;;;;;;18.12;51.58;96871.66;5022388;28;20041;-68
2022/09/18 10:36:08;;;;;;;4.85;1.48;;;;;;;18.18;52.64;96871.22;5040903;28;20044;-67
2022/09/18 10:38:38;;;;;;;6.05;2.75;;;;;;;17.65;51.74;96860.22;5041252;28;20037;-67
2022/09/18 10:41:33;;;;;;;2.23;0.70;;;;;;;17.98;51.84;96859.94;5039120;28;20055;-66
2022/09/18 10:44:13;;;;;;;2.05;0.70;;;;;;;17.78;51.50;96858.50;5024923;28;20092;-67
2022/09/18 10:46:50;;;;;;;3.70;1.00;;;;;;;17.37;53.91;96867.56;5005387;28;20048;-67
2022/09/18 10:49:23;;;;;;;1.90;0.60;;;;;;;17.23;53.65;96864.88;5017188;28;20045;-66
2022/09/18 10:52:22;;;;;;;2.20;0.68;;;;;;;16.93;54.41;96859.97;5004013;28;20080;-66
2022/09/18 10:55:03;;;;;;;6.10;1.70;;;;;;;16.42;56.66;96860.22;5018995;28;20041;-66
2022/09/18 10:57:48;;;;;;;2.28;0.70;;;;;;;15.68;57.42;96859.16;5005155;28;20120;-66
2022/09/18 11:00:20;;;;;;;4.78;1.40;;;;;;;15.36;59.71;96850.91;5019299;28;20072;-66
2022/09/18 11:03:29;;;;;;;6.03;2.13;;;;;;;15.64;59.04;96837.09;5023869;28;20506;-67
2022/09/18 11:06:06;;;;;;;2.90;1.00;;;;;;;16.53;55.23;96834.47;5040545;28;20068;-66
2022/09/18 11:08:40;;;;;;;3.88;1.10;;;;;;;16.86;52.73;96832.34;5027917;28;20139;-66
2022/09/18 11:11:09;;;;;;;2.67;0.50;;;;;;;17.58;51.45;96833.38;5055127;28;20071;-65
2022/09/18 11:13:43;;;;;;;1.67;0.50;;;;;;;17.71;51.17;96821.78;5049645;28;20048;-66
2022/09/18 11:16:10;;;;;;;2.65;0.60;;;;;;;17.45;49.95;96823.19;5017132;28;20052;-66
2022/09/18 11:18:36;;;;;;;2.22;0.50;;;;;;;17.37;51.30;96820.50;5036897;28;20057;-67
2022/09/18 11:21:05;;;;;;;5.43;1.17;;;;;;;17.57;51.44;96831.81;5024922;28;20493;-65
2022/09/18 11:23:33;;;;;;;2.17;0.85;;;;;;;17.96;49.82;96818.78;5020918;28;20446;-67
2022/09/18 11:26:19;;;;;;;3.35;1.02;;;;;;;18.50;48.81;96820.91;4996062;28;20116;-70
2022/09/18 11:29:01;;;;;;;1.83;0.60;;;;;;;18.30;48.39;96818.78;5020136;28;20049;-67
2022/09/18 11:31:38;;;;;;;2.42;0.50;;;;;;;17.85;49.68;96818.91;5024633;28;20366;-67
2022/09/18 11:34:15;;;;;;;2.45;0.90;;;;;;;18.02;49.62;96813.56;5022761;28;20080;-65
2022/09/18 11:36:46;;;;;;;3.35;1.48;;;;;;;18.08;48.52;96823.03;5026033;28;20033;-66
2022/09/18 11:39:18;;;;;;;2.67;0.95;;;;;;;18.08;49.37;96807.16;5033441;28;20058;-66
2022/09/18 11:41:48;;;;;;;2.20;0.90;;;;;;;17.94;49.64;96807.31;5029083;28;20691;-66
2022/09/18 11:44:24;;;;;;;1.40;0.57;;;;;;;17.74;50.90;96807.13;5039209;28;20049;-65
2022/09/18 11:47:24;;;;;;;1.40;0.60;;;;;;;17.24;51.42;96804.81;5028408;28;20136;-67